sensor_id;sensor_type;location;lat;lon;timestamp;P1;durP1;ratioP1;P2;durP2;ratioP2
70367;SDS011;57789;53.868;10.728;2022-08-03T00:01:57;27.70;;;19.90;;
70367;SDS011;57789;53.868;10.728;2022-08-03T00:04:23;61.10;;;42.63;;
70367;SDS011;57789;53.868;10.728;2022-08-03T00:06:49;13.63;;;10.77;;
70367;SDS011;57789;53.868;10.728;2022-08-03T00:09:15;17.80;;;12.87;;
70367;SDS011;57789;53.868;10.728;2022-08-03T00:11:40;14.00;;;7.53;;
70367;SDS011;57789;53.868;10.728;2022-08-03T00:14:09;10.13;;;7.37;;
70367;SDS011;57789;53.868;10.728;2022-08-03T00:16:34;17.77;;;13.60;;
70367;SDS011;57789;53.868;10.728;2022-08-03T00:19:00;18.37;;;9.63;;
70367;SDS011;57789;53.868;10.728;2022-08-03T00:21:27;26.97;;;20.87;;
70367;SDS011;57789;53.868;10.728;2022-08-03T00:23:53;15.00;;;10.40;;
70367;SDS011;57789;53.868;10.728;2022-08-03T00:26:19;6.00;;;3.30;;
70367;SDS011;57789;53.868;10.728;2022-08-03T00:28:45;15.93;;;10.13;;
70367;SDS011;57789;53.868;10.728;2022-08-03T00:31:12;17.00;;;11.73;;
70367;SDS011;57789;53.868;10.728;2022-08-03T00:33:38;14.13;;;4.60;;
70367;SDS011;57789;53.868;10.728;2022-08-03T00:36:03;11.13;;;7.97;;
70367;SDS011;57789;53.868;10.728;2022-08-03T00:38:29;14.30;;;10.70;;
70367;SDS011;57789;53.868;10.728;2022-08-03T00:40:55;15.17;;;7.93;;
70367;SDS011;57789;53.868;10.728;2022-08-03T00:43:23;11.40;;;9.00;;
70367;SDS011;57789;53.868;10.728;2022-08-03T00:45:50;9.87;;;7.10;;
70367;SDS011;57789;53.868;10.728;2022-08-03T00:48:16;11.30;;;7.53;;
70367;SDS011;57789;53.868;10.728;2022-08-03T00:50:42;10.73;;;5.77;;
70367;SDS011;57789;53.868;10.728;2022-08-03T00:53:09;8.60;;;6.97;;
70367;SDS011;57789;53.868;10.728;2022-08-03T00:55:38;5.03;;;3.63;;
70367;SDS011;57789;53.868;10.728;2022-08-03T00:58:06;14.20;;;11.20;;
70367;SDS011;57789;53.868;10.728;2022-08-03T01:00:33;50.77;;;34.27;;
70367;SDS011;57789;53.868;10.728;2022-08-03T01:03:00;33.60;;;26.50;;
70367;SDS011;57789;53.868;10.728;2022-08-03T01:05:27;64.70;;;45.50;;
70367;SDS011;57789;53.868;10.728;2022-08-03T01:08:05;33.93;;;25.03;;
70367;SDS011;57789;53.868;10.728;2022-08-03T01:16:43;19.43;;;11.43;;
70367;SDS011;57789;53.868;10.728;2022-08-03T01:21:34;21.67;;;16.57;;
70367;SDS011;57789;53.868;10.728;2022-08-03T01:27:12;19.10;;;11.43;;
70367;SDS011;57789;53.868;10.728;2022-08-03T01:29:47;7.93;;;4.00;;
70367;SDS011;57789;53.868;10.728;2022-08-03T01:32:15;13.63;;;9.77;;
70367;SDS011;57789;53.868;10.728;2022-08-03T01:34:52;13.57;;;7.77;;
70367;SDS011;57789;53.868;10.728;2022-08-03T01:37:25;12.80;;;9.90;;
70367;SDS011;57789;53.868;10.728;2022-08-03T01:39:58;8.23;;;5.30;;
70367;SDS011;57789;53.868;10.728;2022-08-03T01:42:28;6.77;;;3.90;;
70367;SDS011;57789;53.868;10.728;2022-08-03T01:44:55;14.40;;;10.30;;
70367;SDS011;57789;53.868;10.728;2022-08-03T01:47:23;5.20;;;3.90;;
70367;SDS011;57789;53.868;10.728;2022-08-03T01:49:51;8.03;;;5.13;;
70367;SDS011;57789;53.868;10.728;2022-08-03T01:52:19;7.53;;;4.80;;
70367;SDS011;57789;53.868;10.728;2022-08-03T01:54:47;5.07;;;4.20;;
70367;SDS011;57789;53.868;10.728;2022-08-03T01:57:15;10.03;;;6.67;;
70367;SDS011;57789;53.868;10.728;2022-08-03T01:59:41;107.20;;;67.97;;
70367;SDS011;57789;53.868;10.728;2022-08-03T02:02:12;34.30;;;22.63;;
70367;SDS011;57789;53.868;10.728;2022-08-03T02:04:40;66.13;;;44.10;;
70367;SDS011;57789;53.868;10.728;2022-08-03T02:07:07;27.70;;;20.03;;
70367;SDS011;57789;53.868;10.728;2022-08-03T02:09:36;19.13;;;13.20;;
70367;SDS011;57789;53.868;10.728;2022-08-03T02:12:06;50.00;;;33.60;;
70367;SDS011;57789;53.868;10.728;2022-08-03T02:14:33;21.47;;;12.50;;
70367;SDS011;57789;53.868;10.728;2022-08-03T02:17:00;51.03;;;35.80;;
70367;SDS011;57789;53.868;10.728;2022-08-03T02:19:26;37.13;;;25.20;;
70367;SDS011;57789;53.868;10.728;2022-08-03T02:21:52;21.83;;;14.20;;
70367;SDS011;57789;53.868;10.728;2022-08-03T02:24:18;23.83;;;15.20;;
70367;SDS011;57789;53.868;10.728;2022-08-03T02:26:44;18.53;;;13.43;;
70367;SDS011;57789;53.868;10.728;2022-08-03T02:29:15;11.40;;;5.70;;
70367;SDS011;57789;53.868;10.728;2022-08-03T02:31:45;12.30;;;7.17;;
70367;SDS011;57789;53.868;10.728;2022-08-03T02:34:13;23.63;;;15.20;;
70367;SDS011;57789;53.868;10.728;2022-08-03T02:36:41;12.47;;;9.47;;
70367;SDS011;57789;53.868;10.728;2022-08-03T02:39:10;6.93;;;5.20;;
70367;SDS011;57789;53.868;10.728;2022-08-03T02:41:44;17.20;;;11.50;;
70367;SDS011;57789;53.868;10.728;2022-08-03T02:44:13;7.60;;;5.40;;
70367;SDS011;57789;53.868;10.728;2022-08-03T02:46:42;5.90;;;4.20;;
70367;SDS011;57789;53.868;10.728;2022-08-03T02:49:09;9.67;;;7.27;;
70367;SDS011;57789;53.868;10.728;2022-08-03T02:51:37;7.90;;;3.87;;
70367;SDS011;57789;53.868;10.728;2022-08-03T02:54:04;5.13;;;3.60;;
70367;SDS011;57789;53.868;10.728;2022-08-03T02:56:33;4.27;;;2.70;;
70367;SDS011;57789;53.868;10.728;2022-08-03T02:59:00;11.30;;;7.23;;
70367;SDS011;57789;53.868;10.728;2022-08-03T03:01:28;8.70;;;4.57;;
70367;SDS011;57789;53.868;10.728;2022-08-03T03:03:55;9.60;;;4.97;;
70367;SDS011;57789;53.868;10.728;2022-08-03T03:06:25;5.43;;;4.10;;
70367;SDS011;57789;53.868;10.728;2022-08-03T03:08:55;5.30;;;3.50;;
70367;SDS011;57789;53.868;10.728;2022-08-03T03:11:22;6.50;;;4.00;;
70367;SDS011;57789;53.868;10.728;2022-08-03T03:13:50;6.07;;;4.80;;
70367;SDS011;57789;53.868;10.728;2022-08-03T03:16:16;4.90;;;4.17;;
70367;SDS011;57789;53.868;10.728;2022-08-03T03:18:43;10.27;;;4.73;;
70367;SDS011;57789;53.868;10.728;2022-08-03T03:21:11;7.00;;;4.63;;
70367;SDS011;57789;53.868;10.728;2022-08-03T03:23:38;5.47;;;3.73;;
70367;SDS011;57789;53.868;10.728;2022-08-03T03:26:05;7.03;;;3.67;;
70367;SDS011;57789;53.868;10.728;2022-08-03T03:28:32;4.30;;;3.10;;
70367;SDS011;57789;53.868;10.728;2022-08-03T03:31:01;6.97;;;3.13;;
70367;SDS011;57789;53.868;10.728;2022-08-03T03:33:29;7.67;;;3.10;;
70367;SDS011;57789;53.868;10.728;2022-08-03T03:35:54;5.03;;;3.70;;
70367;SDS011;57789;53.868;10.728;2022-08-03T03:38:22;3.57;;;2.60;;
70367;SDS011;57789;53.868;10.728;2022-08-03T03:40:47;5.60;;;3.53;;
70367;SDS011;57789;53.868;10.728;2022-08-03T03:43:13;6.10;;;3.60;;
70367;SDS011;57789;53.868;10.728;2022-08-03T03:45:39;4.93;;;3.47;;
70367;SDS011;57789;53.868;10.728;2022-08-03T03:48:07;6.13;;;3.57;;
70367;SDS011;57789;53.868;10.728;2022-08-03T03:50:33;7.03;;;3.70;;
70367;SDS011;57789;53.868;10.728;2022-08-03T03:53:00;4.70;;;3.40;;
70367;SDS011;57789;53.868;10.728;2022-08-03T03:55:26;14.67;;;2.90;;
70367;SDS011;57789;53.868;10.728;2022-08-03T03:57:53;4.90;;;3.57;;
70367;SDS011;57789;53.868;10.728;2022-08-03T04:00:18;4.93;;;3.53;;
70367;SDS011;57789;53.868;10.728;2022-08-03T04:02:44;4.57;;;3.17;;
70367;SDS011;57789;53.868;10.728;2022-08-03T04:05:11;9.73;;;3.73;;
70367;SDS011;57789;53.868;10.728;2022-08-03T04:10:45;4.73;;;3.20;;
70367;SDS011;57789;53.868;10.728;2022-08-03T04:13:24;7.93;;;3.27;;
70367;SDS011;57789;53.868;10.728;2022-08-03T04:15:55;4.50;;;3.83;;
70367;SDS011;57789;53.868;10.728;2022-08-03T04:18:22;4.00;;;3.53;;
70367;SDS011;57789;53.868;10.728;2022-08-03T04:20:51;3.50;;;3.20;;
70367;SDS011;57789;53.868;10.728;2022-08-03T04:23:20;7.80;;;3.20;;
70367;SDS011;57789;53.868;10.728;2022-08-03T04:25:49;3.43;;;3.13;;
70367;SDS011;57789;53.868;10.728;2022-08-03T04:28:18;6.23;;;3.27;;
70367;SDS011;57789;53.868;10.728;2022-08-03T04:30:46;5.00;;;3.40;;
70367;SDS011;57789;53.868;10.728;2022-08-03T04:33:15;6.43;;;3.60;;
70367;SDS011;57789;53.868;10.728;2022-08-03T04:35:42;3.43;;;2.83;;
70367;SDS011;57789;53.868;10.728;2022-08-03T04:38:11;6.30;;;4.10;;
70367;SDS011;57789;53.868;10.728;2022-08-03T04:40:40;6.40;;;3.93;;
70367;SDS011;57789;53.868;10.728;2022-08-03T04:43:08;4.90;;;3.43;;
70367;SDS011;57789;53.868;10.728;2022-08-03T04:45:35;4.00;;;3.60;;
70367;SDS011;57789;53.868;10.728;2022-08-03T04:48:02;4.90;;;3.60;;
70367;SDS011;57789;53.868;10.728;2022-08-03T04:50:29;4.67;;;3.43;;
70367;SDS011;57789;53.868;10.728;2022-08-03T04:52:55;3.90;;;3.50;;
70367;SDS011;57789;53.868;10.728;2022-08-03T04:57:52;7.97;;;4.00;;
70367;SDS011;57789;53.868;10.728;2022-08-03T05:00:18;7.13;;;4.20;;
70367;SDS011;57789;53.868;10.728;2022-08-03T05:02:44;4.97;;;3.47;;
70367;SDS011;57789;53.868;10.728;2022-08-03T05:05:10;4.23;;;3.83;;
70367;SDS011;57789;53.868;10.728;2022-08-03T05:07:36;6.47;;;3.30;;
70367;SDS011;57789;53.868;10.728;2022-08-03T05:10:02;8.33;;;4.10;;
70367;SDS011;57789;53.868;10.728;2022-08-03T05:12:29;4.30;;;3.13;;
70367;SDS011;57789;53.868;10.728;2022-08-03T05:14:55;9.00;;;3.93;;
70367;SDS011;57789;53.868;10.728;2022-08-03T05:17:21;4.90;;;3.27;;
70367;SDS011;57789;53.868;10.728;2022-08-03T05:19:46;6.63;;;3.90;;
70367;SDS011;57789;53.868;10.728;2022-08-03T05:22:12;4.27;;;3.30;;
70367;SDS011;57789;53.868;10.728;2022-08-03T05:24:38;5.63;;;2.93;;
70367;SDS011;57789;53.868;10.728;2022-08-03T05:27:03;4.43;;;3.83;;
70367;SDS011;57789;53.868;10.728;2022-08-03T05:29:29;7.50;;;3.40;;
70367;SDS011;57789;53.868;10.728;2022-08-03T05:31:55;6.23;;;3.73;;
70367;SDS011;57789;53.868;10.728;2022-08-03T05:34:20;5.10;;;3.97;;
70367;SDS011;57789;53.868;10.728;2022-08-03T05:36:46;10.60;;;4.00;;
70367;SDS011;57789;53.868;10.728;2022-08-03T05:39:12;6.30;;;3.57;;
70367;SDS011;57789;53.868;10.728;2022-08-03T05:41:37;5.00;;;4.03;;
70367;SDS011;57789;53.868;10.728;2022-08-03T05:44:03;8.13;;;3.20;;
70367;SDS011;57789;53.868;10.728;2022-08-03T05:46:29;5.37;;;4.10;;
70367;SDS011;57789;53.868;10.728;2022-08-03T05:48:54;4.87;;;3.37;;
70367;SDS011;57789;53.868;10.728;2022-08-03T05:51:20;4.43;;;3.80;;
70367;SDS011;57789;53.868;10.728;2022-08-03T05:53:46;4.80;;;4.10;;
70367;SDS011;57789;53.868;10.728;2022-08-03T05:56:11;5.10;;;3.70;;
70367;SDS011;57789;53.868;10.728;2022-08-03T05:58:37;5.30;;;3.10;;
70367;SDS011;57789;53.868;10.728;2022-08-03T06:01:03;7.80;;;3.10;;
70367;SDS011;57789;53.868;10.728;2022-08-03T06:03:28;5.83;;;3.97;;
70367;SDS011;57789;53.868;10.728;2022-08-03T06:05:54;14.90;;;3.17;;
70367;SDS011;57789;53.868;10.728;2022-08-03T06:08:23;5.90;;;3.47;;
70367;SDS011;57789;53.868;10.728;2022-08-03T06:10:49;6.03;;;3.60;;
70367;SDS011;57789;53.868;10.728;2022-08-03T06:13:14;5.77;;;2.93;;
70367;SDS011;57789;53.868;10.728;2022-08-03T06:15:40;4.07;;;3.40;;
70367;SDS011;57789;53.868;10.728;2022-08-03T06:18:06;5.67;;;3.87;;
70367;SDS011;57789;53.868;10.728;2022-08-03T06:20:32;4.10;;;2.97;;
70367;SDS011;57789;53.868;10.728;2022-08-03T06:22:58;9.03;;;3.80;;
70367;SDS011;57789;53.868;10.728;2022-08-03T06:25:24;3.30;;;2.90;;
70367;SDS011;57789;53.868;10.728;2022-08-03T06:27:50;4.13;;;3.40;;
70367;SDS011;57789;53.868;10.728;2022-08-03T06:30:16;4.30;;;3.17;;
70367;SDS011;57789;53.868;10.728;2022-08-03T06:32:43;3.70;;;3.00;;
70367;SDS011;57789;53.868;10.728;2022-08-03T06:35:09;5.73;;;3.73;;
70367;SDS011;57789;53.868;10.728;2022-08-03T06:37:44;4.53;;;3.40;;
70367;SDS011;57789;53.868;10.728;2022-08-03T06:40:11;4.23;;;2.57;;
70367;SDS011;57789;53.868;10.728;2022-08-03T06:42:38;6.80;;;3.10;;
70367;SDS011;57789;53.868;10.728;2022-08-03T06:45:05;8.73;;;2.60;;
70367;SDS011;57789;53.868;10.728;2022-08-03T06:47:32;5.07;;;3.60;;
70367;SDS011;57789;53.868;10.728;2022-08-03T06:49:59;4.07;;;3.50;;
70367;SDS011;57789;53.868;10.728;2022-08-03T06:52:24;3.60;;;2.83;;
70367;SDS011;57789;53.868;10.728;2022-08-03T06:54:50;5.57;;;3.23;;
70367;SDS011;57789;53.868;10.728;2022-08-03T06:57:16;11.10;;;3.00;;
70367;SDS011;57789;53.868;10.728;2022-08-03T06:59:42;5.10;;;2.93;;
70367;SDS011;57789;53.868;10.728;2022-08-03T07:02:08;3.80;;;2.50;;
70367;SDS011;57789;53.868;10.728;2022-08-03T07:04:37;2.70;;;2.33;;
70367;SDS011;57789;53.868;10.728;2022-08-03T07:07:02;5.00;;;2.50;;
70367;SDS011;57789;53.868;10.728;2022-08-03T07:09:28;3.90;;;2.67;;
70367;SDS011;57789;53.868;10.728;2022-08-03T07:11:53;4.23;;;2.37;;
70367;SDS011;57789;53.868;10.728;2022-08-03T07:14:21;3.37;;;2.37;;
70367;SDS011;57789;53.868;10.728;2022-08-03T07:16:47;8.00;;;2.20;;
70367;SDS011;57789;53.868;10.728;2022-08-03T07:19:13;5.10;;;2.53;;
70367;SDS011;57789;53.868;10.728;2022-08-03T07:21:38;7.53;;;2.33;;
70367;SDS011;57789;53.868;10.728;2022-08-03T07:24:04;4.50;;;2.93;;
70367;SDS011;57789;53.868;10.728;2022-08-03T07:26:30;4.20;;;2.37;;
70367;SDS011;57789;53.868;10.728;2022-08-03T07:28:55;4.73;;;2.27;;
70367;SDS011;57789;53.868;10.728;2022-08-03T07:31:21;4.87;;;2.50;;
70367;SDS011;57789;53.868;10.728;2022-08-03T07:33:47;3.03;;;2.30;;
70367;SDS011;57789;53.868;10.728;2022-08-03T07:36:12;6.33;;;2.60;;
70367;SDS011;57789;53.868;10.728;2022-08-03T07:38:38;4.67;;;2.07;;
70367;SDS011;57789;53.868;10.728;2022-08-03T07:41:04;5.03;;;2.27;;
70367;SDS011;57789;53.868;10.728;2022-08-03T07:43:29;2.47;;;2.27;;
70367;SDS011;57789;53.868;10.728;2022-08-03T07:45:55;5.13;;;2.20;;
70367;SDS011;57789;53.868;10.728;2022-08-03T07:48:20;5.60;;;2.40;;
70367;SDS011;57789;53.868;10.728;2022-08-03T07:50:46;3.83;;;2.07;;
70367;SDS011;57789;53.868;10.728;2022-08-03T07:53:12;4.77;;;2.13;;
70367;SDS011;57789;53.868;10.728;2022-08-03T07:55:38;3.57;;;2.20;;
70367;SDS011;57789;53.868;10.728;2022-08-03T07:58:10;3.30;;;2.03;;
70367;SDS011;57789;53.868;10.728;2022-08-03T08:00:39;4.37;;;2.53;;
70367;SDS011;57789;53.868;10.728;2022-08-03T08:03:06;7.50;;;1.93;;
70367;SDS011;57789;53.868;10.728;2022-08-03T08:05:32;4.40;;;2.50;;
70367;SDS011;57789;53.868;10.728;2022-08-03T08:07:59;5.60;;;2.40;;
70367;SDS011;57789;53.868;10.728;2022-08-03T08:10:25;7.43;;;2.07;;
70367;SDS011;57789;53.868;10.728;2022-08-03T08:12:51;1.60;;;1.50;;
70367;SDS011;57789;53.868;10.728;2022-08-03T08:15:17;2.57;;;2.03;;
70367;SDS011;57789;53.868;10.728;2022-08-03T08:17:49;3.20;;;1.47;;
70367;SDS011;57789;53.868;10.728;2022-08-03T08:20:20;3.70;;;1.77;;
70367;SDS011;57789;53.868;10.728;2022-08-03T08:22:50;2.67;;;1.83;;
70367;SDS011;57789;53.868;10.728;2022-08-03T08:25:15;3.10;;;2.03;;
70367;SDS011;57789;53.868;10.728;2022-08-03T08:27:46;5.43;;;3.07;;
70367;SDS011;57789;53.868;10.728;2022-08-03T08:30:13;6.47;;;2.00;;
70367;SDS011;57789;53.868;10.728;2022-08-03T08:32:40;5.60;;;1.97;;
70367;SDS011;57789;53.868;10.728;2022-08-03T08:35:06;6.73;;;1.70;;
70367;SDS011;57789;53.868;10.728;2022-08-03T08:37:33;4.47;;;2.50;;
70367;SDS011;57789;53.868;10.728;2022-08-03T08:39:59;4.60;;;1.93;;
70367;SDS011;57789;53.868;10.728;2022-08-03T08:42:24;8.90;;;2.40;;
70367;SDS011;57789;53.868;10.728;2022-08-03T08:44:50;4.00;;;2.17;;
70367;SDS011;57789;53.868;10.728;2022-08-03T08:47:18;10.13;;;1.80;;
70367;SDS011;57789;53.868;10.728;2022-08-03T08:49:47;6.30;;;1.60;;
70367;SDS011;57789;53.868;10.728;2022-08-03T08:52:18;8.10;;;1.83;;
70367;SDS011;57789;53.868;10.728;2022-08-03T08:54:51;4.10;;;1.70;;
70367;SDS011;57789;53.868;10.728;2022-08-03T08:57:30;2.93;;;2.00;;
70367;SDS011;57789;53.868;10.728;2022-08-03T09:00:04;12.40;;;2.20;;
70367;SDS011;57789;53.868;10.728;2022-08-03T09:02:33;3.43;;;1.47;;
70367;SDS011;57789;53.868;10.728;2022-08-03T09:04:59;8.50;;;1.97;;
70367;SDS011;57789;53.868;10.728;2022-08-03T09:07:26;5.67;;;1.73;;
70367;SDS011;57789;53.868;10.728;2022-08-03T09:09:53;3.10;;;1.60;;
70367;SDS011;57789;53.868;10.728;2022-08-03T09:12:19;6.50;;;1.33;;
70367;SDS011;57789;53.868;10.728;2022-08-03T09:14:44;3.30;;;1.57;;
70367;SDS011;57789;53.868;10.728;2022-08-03T09:17:10;6.63;;;1.80;;
70367;SDS011;57789;53.868;10.728;2022-08-03T09:19:36;6.10;;;1.77;;
70367;SDS011;57789;53.868;10.728;2022-08-03T09:22:23;5.63;;;1.90;;
70367;SDS011;57789;53.868;10.728;2022-08-03T09:24:56;3.50;;;1.83;;
70367;SDS011;57789;53.868;10.728;2022-08-03T09:27:24;8.23;;;1.60;;
70367;SDS011;57789;53.868;10.728;2022-08-03T09:29:51;6.63;;;1.47;;
70367;SDS011;57789;53.868;10.728;2022-08-03T09:32:18;6.47;;;1.90;;
70367;SDS011;57789;53.868;10.728;2022-08-03T09:34:47;4.73;;;1.70;;
70367;SDS011;57789;53.868;10.728;2022-08-03T09:37:14;8.97;;;2.23;;
70367;SDS011;57789;53.868;10.728;2022-08-03T09:39:41;5.20;;;1.73;;
70367;SDS011;57789;53.868;10.728;2022-08-03T09:42:09;4.07;;;2.10;;
70367;SDS011;57789;53.868;10.728;2022-08-03T09:44:40;3.43;;;1.30;;
70367;SDS011;57789;53.868;10.728;2022-08-03T09:47:25;2.10;;;1.70;;
70367;SDS011;57789;53.868;10.728;2022-08-03T09:49:57;10.20;;;2.23;;
70367;SDS011;57789;53.868;10.728;2022-08-03T09:52:29;10.07;;;2.40;;
70367;SDS011;57789;53.868;10.728;2022-08-03T09:54:57;10.13;;;1.90;;
70367;SDS011;57789;53.868;10.728;2022-08-03T09:57:24;4.83;;;1.93;;
70367;SDS011;57789;53.868;10.728;2022-08-03T09:59:51;4.30;;;2.10;;
70367;SDS011;57789;53.868;10.728;2022-08-03T10:04:49;2.40;;;1.60;;
70367;SDS011;57789;53.868;10.728;2022-08-03T10:07:16;7.17;;;2.43;;
70367;SDS011;57789;53.868;10.728;2022-08-03T10:12:26;6.57;;;2.30;;
70367;SDS011;57789;53.868;10.728;2022-08-03T10:14:52;5.63;;;1.60;;
70367;SDS011;57789;53.868;10.728;2022-08-03T10:17:19;7.10;;;2.70;;
70367;SDS011;57789;53.868;10.728;2022-08-03T10:19:47;7.13;;;1.80;;
70367;SDS011;57789;53.868;10.728;2022-08-03T10:22:22;4.73;;;1.80;;
70367;SDS011;57789;53.868;10.728;2022-08-03T10:27:19;5.53;;;2.03;;
70367;SDS011;57789;53.868;10.728;2022-08-03T10:29:49;4.13;;;2.13;;
70367;SDS011;57789;53.868;10.728;2022-08-03T10:32:20;9.40;;;2.00;;
70367;SDS011;57789;53.868;10.728;2022-08-03T10:34:51;11.70;;;2.23;;
70367;SDS011;57789;53.868;10.728;2022-08-03T10:37:24;2.67;;;1.90;;
70367;SDS011;57789;53.868;10.728;2022-08-03T10:39:54;3.90;;;1.90;;
70367;SDS011;57789;53.868;10.728;2022-08-03T10:42:23;3.50;;;1.90;;
70367;SDS011;57789;53.868;10.728;2022-08-03T10:44:55;6.33;;;2.00;;
70367;SDS011;57789;53.868;10.728;2022-08-03T10:47:29;5.17;;;1.97;;
70367;SDS011;57789;53.868;10.728;2022-08-03T10:49:55;5.47;;;1.67;;
70367;SDS011;57789;53.868;10.728;2022-08-03T10:52:21;10.70;;;2.40;;
70367;SDS011;57789;53.868;10.728;2022-08-03T10:54:47;7.73;;;1.87;;
70367;SDS011;57789;53.868;10.728;2022-08-03T11:00:27;2.27;;;1.80;;
70367;SDS011;57789;53.868;10.728;2022-08-03T11:05:39;3.40;;;1.53;;
70367;SDS011;57789;53.868;10.728;2022-08-03T11:11:01;5.40;;;1.53;;
70367;SDS011;57789;53.868;10.728;2022-08-03T11:14:05;12.20;;;1.47;;
70367;SDS011;57789;53.868;10.728;2022-08-03T11:17:17;8.63;;;2.30;;
70367;SDS011;57789;53.868;10.728;2022-08-03T11:19:44;7.17;;;2.60;;
70367;SDS011;57789;53.868;10.728;2022-08-03T11:22:11;9.13;;;1.87;;
70367;SDS011;57789;53.868;10.728;2022-08-03T11:35:11;5.10;;;1.57;;
70367;SDS011;57789;53.868;10.728;2022-08-03T11:45:59;8.60;;;1.40;;
70367;SDS011;57789;53.868;10.728;2022-08-03T11:48:35;8.80;;;2.10;;
70367;SDS011;57789;53.868;10.728;2022-08-03T11:51:02;9.17;;;2.00;;
70367;SDS011;57789;53.868;10.728;2022-08-03T11:53:30;6.70;;;2.00;;
70367;SDS011;57789;53.868;10.728;2022-08-03T11:55:59;13.30;;;2.00;;
70367;SDS011;57789;53.868;10.728;2022-08-03T11:58:26;5.37;;;1.67;;
70367;SDS011;57789;53.868;10.728;2022-08-03T12:01:02;2.77;;;1.80;;
70367;SDS011;57789;53.868;10.728;2022-08-03T12:03:31;4.80;;;1.50;;
70367;SDS011;57789;53.868;10.728;2022-08-03T12:05:58;10.70;;;2.80;;
70367;SDS011;57789;53.868;10.728;2022-08-03T12:10:52;7.87;;;1.87;;
70367;SDS011;57789;53.868;10.728;2022-08-03T12:13:19;3.63;;;1.80;;
70367;SDS011;57789;53.868;10.728;2022-08-03T12:15:53;5.73;;;1.80;;
70367;SDS011;57789;53.868;10.728;2022-08-03T12:18:23;3.90;;;1.50;;
70367;SDS011;57789;53.868;10.728;2022-08-03T12:20:50;9.07;;;3.63;;
70367;SDS011;57789;53.868;10.728;2022-08-03T12:23:17;4.90;;;1.70;;
70367;SDS011;57789;53.868;10.728;2022-08-03T12:25:44;9.30;;;1.77;;
70367;SDS011;57789;53.868;10.728;2022-08-03T12:28:18;4.53;;;1.63;;
70367;SDS011;57789;53.868;10.728;2022-08-03T12:30:48;4.97;;;1.60;;
70367;SDS011;57789;53.868;10.728;2022-08-03T12:33:16;1.83;;;1.13;;
70367;SDS011;57789;53.868;10.728;2022-08-03T12:35:48;6.20;;;1.40;;
70367;SDS011;57789;53.868;10.728;2022-08-03T12:38:37;9.23;;;2.43;;
70367;SDS011;57789;53.868;10.728;2022-08-03T12:41:07;4.60;;;1.63;;
70367;SDS011;57789;53.868;10.728;2022-08-03T12:43:49;7.68;;;1.83;;
70367;SDS011;57789;53.868;10.728;2022-08-03T12:46:16;3.97;;;2.05;;
70367;SDS011;57789;53.868;10.728;2022-08-03T12:54:08;5.18;;;1.83;;
70367;SDS011;57789;53.868;10.728;2022-08-03T12:59:26;9.13;;;1.60;;
70367;SDS011;57789;53.868;10.728;2022-08-03T13:01:53;3.17;;;1.58;;
70367;SDS011;57789;53.868;10.728;2022-08-03T13:04:25;4.88;;;1.65;;
70367;SDS011;57789;53.868;10.728;2022-08-03T13:06:56;3.55;;;1.73;;
70367;SDS011;57789;53.868;10.728;2022-08-03T13:09:28;5.15;;;2.40;;
70367;SDS011;57789;53.868;10.728;2022-08-03T13:12:05;9.60;;;1.58;;
70367;SDS011;57789;53.868;10.728;2022-08-03T13:14:32;4.93;;;1.80;;
70367;SDS011;57789;53.868;10.728;2022-08-03T13:16:58;9.32;;;2.88;;
70367;SDS011;57789;53.868;10.728;2022-08-03T13:19:24;5.65;;;2.05;;
70367;SDS011;57789;53.868;10.728;2022-08-03T13:21:49;13.38;;;1.83;;
70367;SDS011;57789;53.868;10.728;2022-08-03T13:24:15;3.92;;;1.50;;
70367;SDS011;57789;53.868;10.728;2022-08-03T13:26:41;7.43;;;1.45;;
70367;SDS011;57789;53.868;10.728;2022-08-03T13:29:06;15.07;;;2.10;;
70367;SDS011;57789;53.868;10.728;2022-08-03T13:31:32;6.72;;;1.88;;
70367;SDS011;57789;53.868;10.728;2022-08-03T13:33:58;4.50;;;1.67;;
70367;SDS011;57789;53.868;10.728;2022-08-03T13:36:23;3.55;;;1.30;;
70367;SDS011;57789;53.868;10.728;2022-08-03T13:38:49;3.25;;;1.80;;
70367;SDS011;57789;53.868;10.728;2022-08-03T13:41:15;3.47;;;2.00;;
70367;SDS011;57789;53.868;10.728;2022-08-03T13:43:40;7.95;;;1.60;;
70367;SDS011;57789;53.868;10.728;2022-08-03T13:46:06;13.10;;;1.60;;
70367;SDS011;57789;53.868;10.728;2022-08-03T13:48:32;4.13;;;1.75;;
70367;SDS011;57789;53.868;10.728;2022-08-03T13:50:57;5.00;;;1.90;;
70367;SDS011;57789;53.868;10.728;2022-08-03T13:53:23;2.45;;;1.55;;
70367;SDS011;57789;53.868;10.728;2022-08-03T13:55:49;9.88;;;2.25;;
70367;SDS011;57789;53.868;10.728;2022-08-03T13:58:14;4.72;;;1.65;;
70367;SDS011;57789;53.868;10.728;2022-08-03T14:00:40;4.35;;;1.80;;
70367;SDS011;57789;53.868;10.728;2022-08-03T14:03:06;5.20;;;1.50;;
70367;SDS011;57789;53.868;10.728;2022-08-03T14:05:32;2.60;;;1.67;;
70367;SDS011;57789;53.868;10.728;2022-08-03T14:07:58;6.00;;;1.52;;
70367;SDS011;57789;53.868;10.728;2022-08-03T14:10:25;5.65;;;1.70;;
70367;SDS011;57789;53.868;10.728;2022-08-03T14:12:50;7.18;;;1.70;;
70367;SDS011;57789;53.868;10.728;2022-08-03T14:15:16;4.68;;;1.40;;
70367;SDS011;57789;53.868;10.728;2022-08-03T14:17:42;4.78;;;1.88;;
70367;SDS011;57789;53.868;10.728;2022-08-03T14:20:08;4.88;;;1.70;;
70367;SDS011;57789;53.868;10.728;2022-08-03T14:22:36;3.28;;;1.80;;
70367;SDS011;57789;53.868;10.728;2022-08-03T14:25:02;1.52;;;1.13;;
70367;SDS011;57789;53.868;10.728;2022-08-03T14:27:28;5.32;;;1.83;;
70367;SDS011;57789;53.868;10.728;2022-08-03T14:29:53;12.45;;;1.90;;
70367;SDS011;57789;53.868;10.728;2022-08-03T14:32:23;6.38;;;1.80;;
70367;SDS011;57789;53.868;10.728;2022-08-03T14:34:50;5.95;;;1.55;;
70367;SDS011;57789;53.868;10.728;2022-08-03T14:37:15;8.68;;;1.55;;
70367;SDS011;57789;53.868;10.728;2022-08-03T14:39:42;5.93;;;2.15;;
70367;SDS011;57789;53.868;10.728;2022-08-03T14:42:08;4.35;;;2.38;;
70367;SDS011;57789;53.868;10.728;2022-08-03T14:44:33;6.35;;;1.88;;
70367;SDS011;57789;53.868;10.728;2022-08-03T14:46:59;9.20;;;1.98;;
70367;SDS011;57789;53.868;10.728;2022-08-03T14:49:24;5.95;;;1.40;;
70367;SDS011;57789;53.868;10.728;2022-08-03T14:51:50;5.45;;;1.33;;
70367;SDS011;57789;53.868;10.728;2022-08-03T14:54:16;6.15;;;1.60;;
70367;SDS011;57789;53.868;10.728;2022-08-03T14:56:42;8.60;;;1.77;;
70367;SDS011;57789;53.868;10.728;2022-08-03T14:59:07;10.85;;;1.75;;
70367;SDS011;57789;53.868;10.728;2022-08-03T15:01:33;7.10;;;1.92;;
70367;SDS011;57789;53.868;10.728;2022-08-03T15:03:58;4.60;;;1.60;;
70367;SDS011;57789;53.868;10.728;2022-08-03T15:06:24;6.25;;;1.88;;
70367;SDS011;57789;53.868;10.728;2022-08-03T15:08:50;5.68;;;1.60;;
70367;SDS011;57789;53.868;10.728;2022-08-03T15:11:16;4.15;;;1.73;;
70367;SDS011;57789;53.868;10.728;2022-08-03T15:13:41;4.60;;;1.65;;
70367;SDS011;57789;53.868;10.728;2022-08-03T15:16:07;8.82;;;1.42;;
70367;SDS011;57789;53.868;10.728;2022-08-03T15:18:33;8.65;;;1.40;;
70367;SDS011;57789;53.868;10.728;2022-08-03T15:20:59;4.30;;;1.58;;
70367;SDS011;57789;53.868;10.728;2022-08-03T15:23:24;5.55;;;1.88;;
70367;SDS011;57789;53.868;10.728;2022-08-03T15:25:50;5.10;;;1.80;;
70367;SDS011;57789;53.868;10.728;2022-08-03T15:28:16;10.60;;;3.72;;
70367;SDS011;57789;53.868;10.728;2022-08-03T15:30:41;9.23;;;2.45;;
70367;SDS011;57789;53.868;10.728;2022-08-03T15:33:07;13.38;;;2.63;;
70367;SDS011;57789;53.868;10.728;2022-08-03T15:35:33;4.10;;;1.52;;
70367;SDS011;57789;53.868;10.728;2022-08-03T15:37:59;4.60;;;1.27;;